This is the latest recevied weather packets stored in our database for station/object KB3UMW-13. If no packets are shown the sender has not sent any weather packets the latest 10 day(s).
| Time | Temp. | Humidity | Pressure | Rain* | Wind** | Luminosity | Snow |
|---|---|---|---|---|---|---|---|
| 1777975553 | 13.89° C | 71% | 1011.9 hPa | 0 mm | - | 1 W/m² | - |
| 1777975250 | 13.33° C | 71% | 1011.9 hPa | 0 mm | - | 0 W/m² | - |
| 1777974947 | 13.89° C | 71% | 1012 hPa | 0 mm | - | 0 W/m² | - |
| 1777974643 | 13.89° C | 70% | 1011.9 hPa | 0 mm | - | 0 W/m² | - |
| 1777974340 | 13.89° C | 71% | 1011.8 hPa | 0 mm | - | 0 W/m² | - |
| 1777974036 | 13.33° C | 72% | 1011.8 hPa | 0 mm | - | 0 W/m² | - |
| 1777973733 | 13.33° C | 71% | 1011.7 hPa | 0 mm | - | 0 W/m² | - |
| 1777973430 | 13.89° C | 70% | 1011.7 hPa | 0 mm | - | 0 W/m² | - |
| 1777973127 | 13.89° C | 70% | 1011.7 hPa | 0 mm | - | 0 W/m² | - |
| 1777972826 | 13.33° C | 71% | 1011.6 hPa | 0 mm | - | 0 W/m² | - |
| 1777972522 | 13.33° C | 72% | 1011.8 hPa | 0 mm | - | 0 W/m² | - |
| 1777972220 | 13.89° C | 70% | 1011.5 hPa | 0 mm | - | 0 W/m² | - |
| 1777971918 | 13.33° C | 71% | 1011.8 hPa | 0 mm | - | 0 W/m² | - |
| 1777971616 | 13.33° C | 69% | 1011.8 hPa | 0 mm | - | 0 W/m² | - |
| 1777971313 | 13.89° C | 71% | 1011.5 hPa | 0 mm | - | 0 W/m² | - |
| 1777971011 | 12.78° C | 75% | 1011.6 hPa | 0 mm | - | 0 W/m² | - |
| 1777970709 | 12.22° C | 74% | 1011.4 hPa | 0 mm | - | 0 W/m² | - |
| 1777970407 | 12.22° C | 78% | 1011.3 hPa | 0 mm | - | 0 W/m² | - |
| 1777970103 | 12.22° C | 77% | 1011.7 hPa | 0 mm | - | 0 W/m² | - |
| 1777969800 | 11.11° C | 80% | 1011.5 hPa | 0 mm | - | 0 W/m² | - |
| 1777969496 | 10.56° C | 83% | 1011.3 hPa | 0 mm | - | 0 W/m² | - |
| 1777969193 | 10.56° C | 86% | 1011.6 hPa | 0 mm | - | 0 W/m² | - |
| 1777968890 | 9.44° C | 89% | 1011.6 hPa | 0 mm | - | 0 W/m² | - |
| 1777968586 | 9.44° C | 89% | 1011.4 hPa | 0 mm | - | 0 W/m² | - |
| 1777968282 | 10° C | 89% | 1011.5 hPa | 0 mm | - | 0 W/m² | - |
* Rain latest hour (hover to see other rain measurements)
** Current wind speed in m/s (hover to see current wind gust speed)